createdAt,value
2019-03-21T00:00:36.409Z,1015.88
2019-03-21T00:01:36.374Z,1015.88
2019-03-21T00:02:36.364Z,1015.88
2019-03-21T00:03:36.354Z,1015.87
2019-03-21T00:04:36.340Z,1015.84
2019-03-21T00:05:36.354Z,1015.91
2019-03-21T00:06:36.334Z,1015.88
2019-03-21T00:07:36.306Z,1015.92
2019-03-21T00:08:36.295Z,1015.94
2019-03-21T00:09:36.313Z,1015.98
2019-03-21T00:10:36.274Z,1015.98
2019-03-21T00:11:36.261Z,1016.03
2019-03-21T00:12:36.314Z,1016.03
2019-03-21T00:13:36.261Z,1016.00
2019-03-21T00:14:36.229Z,1016.07
2019-03-21T00:15:36.226Z,1016.04
2019-03-21T00:16:36.205Z,1016.05
2019-03-21T00:17:36.218Z,1016.04
2019-03-21T00:18:36.186Z,1016.06
2019-03-21T00:19:36.188Z,1016.08
2019-03-21T00:20:36.161Z,1016.04
2019-03-21T00:21:36.149Z,1016.03
2019-03-21T00:22:36.161Z,1016.01
2019-03-21T00:23:36.128Z,1015.98
2019-03-21T00:24:36.116Z,1016.03
2019-03-21T00:25:36.110Z,1016.03
2019-03-21T00:26:36.094Z,1016.02
2019-03-21T00:27:36.107Z,1015.97
2019-03-21T00:28:36.086Z,1016.04
2019-03-21T00:29:36.060Z,1016.02
2019-03-21T00:30:36.052Z,1016.02
2019-03-21T00:31:36.038Z,1016.01
2019-03-21T00:32:36.055Z,1016.01
2019-03-21T00:33:36.040Z,1016.02
2019-03-21T00:34:36.005Z,1016.03
2019-03-21T00:35:38.427Z,1016.03
2019-03-21T00:36:35.983Z,1016.03
2019-03-21T00:37:35.972Z,1016.04
2019-03-21T00:38:35.974Z,1016.02
2019-03-21T00:39:35.971Z,1016.05
2019-03-21T00:40:35.942Z,1016.06
2019-03-21T00:41:35.933Z,1016.09
2019-03-21T00:42:35.920Z,1016.11
2019-03-21T00:43:35.928Z,1016.11
2019-03-21T00:44:35.897Z,1016.12
2019-03-21T00:45:35.887Z,1016.14
2019-03-21T00:46:35.894Z,1016.11
2019-03-21T00:47:35.865Z,1016.17
2019-03-21T00:48:35.850Z,1016.16
2019-03-21T00:49:35.840Z,1016.15
2019-03-21T00:50:35.826Z,1016.12
2019-03-21T00:51:35.838Z,1016.07
2019-03-21T00:52:35.805Z,1016.06
2019-03-21T00:53:35.798Z,1016.06
2019-03-21T00:54:35.781Z,1016.06
2019-03-21T00:55:35.772Z,1016.07
2019-03-21T00:56:35.781Z,1016.00
2019-03-21T00:57:35.747Z,1016.03
2019-03-21T00:58:35.740Z,1015.97
2019-03-21T00:59:35.724Z,1015.93
2019-03-21T01:00:35.715Z,1015.91
2019-03-21T01:01:35.724Z,1015.92
2019-03-21T01:02:35.693Z,1015.90
2019-03-21T01:03:35.703Z,1015.90
2019-03-21T01:04:35.669Z,1015.92
2019-03-21T01:05:35.657Z,1015.92
2019-03-21T01:06:35.646Z,1015.97
2019-03-21T01:07:35.635Z,1015.90
2019-03-21T01:08:35.648Z,1015.87
2019-03-21T01:09:35.611Z,1015.89
2019-03-21T01:10:35.601Z,1015.78
2019-03-21T01:11:35.591Z,1015.82
2019-03-21T01:12:35.580Z,1015.81
2019-03-21T01:13:35.591Z,1015.78
2019-03-21T01:14:35.556Z,1015.80
2019-03-21T01:15:35.570Z,1015.79
2019-03-21T01:16:35.532Z,1015.80
2019-03-21T01:17:35.527Z,1015.82
2019-03-21T01:18:35.512Z,1015.82
2019-03-21T01:19:35.523Z,1015.82
2019-03-21T01:20:35.488Z,1015.79
2019-03-21T01:21:35.483Z,1015.78
2019-03-21T01:22:35.491Z,1015.77
2019-03-21T01:23:35.460Z,1015.77
2019-03-21T01:24:35.449Z,1015.74
2019-03-21T01:25:35.435Z,1015.69
2019-03-21T01:26:35.448Z,1015.71
2019-03-21T01:27:35.410Z,1015.74
2019-03-21T01:28:35.399Z,1015.73
2019-03-21T01:29:35.391Z,1015.72
2019-03-21T01:30:35.377Z,1015.72
2019-03-21T01:31:35.384Z,1015.72
2019-03-21T01:32:35.355Z,1015.71
2019-03-21T01:33:35.343Z,1015.73
2019-03-21T01:34:35.332Z,1015.72
2019-03-21T01:35:35.345Z,1015.73
2019-03-21T01:36:35.336Z,1015.73
2019-03-21T01:37:35.309Z,1015.74
2019-03-21T01:38:35.313Z,1015.73
2019-03-21T01:39:35.278Z,1015.72
2019-03-21T01:40:35.266Z,1015.72
2019-03-21T01:41:35.257Z,1015.70
2019-03-21T01:42:35.246Z,1015.69
2019-03-21T01:43:35.260Z,1015.69
2019-03-21T01:44:41.107Z,1015.68
2019-03-21T01:45:36.210Z,1015.70
2019-03-21T01:46:35.199Z,1015.70
2019-03-21T01:47:35.212Z,1015.70
2019-03-21T01:48:35.178Z,1015.67
2019-03-21T01:49:35.172Z,1015.65
2019-03-21T01:50:35.153Z,1015.62
2019-03-21T01:51:35.143Z,1015.61
2019-03-21T01:52:35.146Z,1015.58
2019-03-21T01:53:35.119Z,1015.54
2019-03-21T01:54:35.131Z,1015.56
2019-03-21T01:55:35.098Z,1015.58
2019-03-21T01:56:35.087Z,1015.53
2019-03-21T01:57:35.075Z,1015.49
2019-03-21T01:58:35.066Z,1015.46
2019-03-21T01:59:35.068Z,1015.48
2019-03-21T02:00:35.070Z,1015.46
2019-03-21T02:01:35.036Z,1015.44
2019-03-21T02:02:35.021Z,1015.49
2019-03-21T02:03:35.008Z,1015.45
2019-03-21T02:04:35.013Z,1015.50
2019-03-21T02:05:35.002Z,1015.47
2019-03-21T02:06:34.974Z,1015.46
2019-03-21T02:07:34.963Z,1015.50
2019-03-21T02:08:34.976Z,1015.44
2019-03-21T02:09:34.941Z,1015.44
2019-03-21T02:10:34.930Z,1015.42
2019-03-21T02:11:34.918Z,1015.44
2019-03-21T02:12:34.908Z,1015.43
2019-03-21T02:13:34.933Z,1015.45
2019-03-21T02:14:34.885Z,1015.41
2019-03-21T02:15:34.873Z,1015.43
2019-03-21T02:16:34.864Z,1015.41
2019-03-21T02:17:34.851Z,1015.41
2019-03-21T02:18:34.866Z,1015.41
2019-03-21T02:19:34.828Z,1015.40
2019-03-21T02:20:34.839Z,1015.42
2019-03-21T02:21:34.828Z,1015.41
2019-03-21T02:22:34.796Z,1015.43
2019-03-21T02:23:34.785Z,1015.41
2019-03-21T02:24:34.771Z,1015.35
2019-03-21T02:25:34.775Z,1015.34
2019-03-21T02:26:34.752Z,1015.34
2019-03-21T02:27:34.771Z,1015.33
2019-03-21T02:28:34.727Z,1015.36
2019-03-21T02:29:34.716Z,1015.37
2019-03-21T02:30:34.708Z,1015.40
2019-03-21T02:31:34.694Z,1015.43
2019-03-21T02:32:34.704Z,1015.38
2019-03-21T02:33:34.676Z,1015.34
2019-03-21T02:34:34.661Z,1015.33
2019-03-21T02:35:34.665Z,1015.39
2019-03-21T02:36:34.648Z,1015.36
2019-03-21T02:37:34.641Z,1015.41
2019-03-21T02:38:34.641Z,1015.38
2019-03-21T02:39:34.603Z,1015.39
2019-03-21T02:40:34.593Z,1015.39
2019-03-21T02:41:34.580Z,1015.37
2019-03-21T02:42:34.574Z,1015.36
2019-03-21T02:43:34.574Z,1015.35
2019-03-21T02:44:34.602Z,1015.39
2019-03-21T02:45:34.537Z,1015.40
2019-03-21T02:46:34.526Z,1015.43
2019-03-21T02:47:34.538Z,1015.42
2019-03-21T02:48:34.505Z,1015.38
2019-03-21T02:49:34.491Z,1015.38
2019-03-21T02:50:34.481Z,1015.37
2019-03-21T02:51:34.519Z,1015.39
2019-03-21T02:52:34.460Z,1015.34
2019-03-21T02:53:34.460Z,1015.41
2019-03-21T02:54:34.436Z,1015.45
2019-03-21T02:55:34.433Z,1015.45
2019-03-21T02:56:34.462Z,1015.42
2019-03-21T02:57:34.441Z,1015.45
2019-03-21T02:58:34.393Z,1015.43
2019-03-21T02:59:34.395Z,1015.41
2019-03-21T03:00:34.368Z,1015.39
2019-03-21T03:01:34.364Z,1015.40
2019-03-21T03:02:37.174Z,1015.43
2019-03-21T03:03:34.339Z,1015.36
2019-03-21T03:04:34.331Z,1015.38
2019-03-21T03:05:34.313Z,1015.42
2019-03-21T03:06:34.301Z,1015.38
2019-03-21T03:07:34.336Z,1015.41
2019-03-21T03:08:34.285Z,1015.38
2019-03-21T03:09:34.301Z,1015.36
2019-03-21T03:10:34.259Z,1015.40
2019-03-21T03:11:34.246Z,1015.37
2019-03-21T03:12:34.240Z,1015.39
2019-03-21T03:13:34.226Z,1015.39
2019-03-21T03:14:34.227Z,1015.37
2019-03-21T03:15:34.228Z,1015.37
2019-03-21T03:16:34.202Z,1015.38
2019-03-21T03:17:34.178Z,1015.34
2019-03-21T03:18:34.193Z,1015.38
2019-03-21T03:19:34.179Z,1015.36
2019-03-21T03:20:34.155Z,1015.36
2019-03-21T03:21:34.135Z,1015.33
2019-03-21T03:22:34.123Z,1015.34
2019-03-21T03:23:34.115Z,1015.33
2019-03-21T03:24:34.128Z,1015.38
2019-03-21T03:25:34.089Z,1015.32
2019-03-21T03:26:34.080Z,1015.33
2019-03-21T03:27:34.083Z,1015.36
2019-03-21T03:28:34.056Z,1015.34
2019-03-21T03:29:34.072Z,1015.33
2019-03-21T03:30:34.037Z,1015.32
2019-03-21T03:31:34.222Z,1015.35
2019-03-21T03:32:34.011Z,1015.34
2019-03-21T03:33:34.035Z,1015.38
2019-03-21T03:34:33.992Z,1015.35
2019-03-21T03:35:33.977Z,1015.39
2019-03-21T03:36:33.964Z,1015.34
2019-03-21T03:37:33.979Z,1015.36
2019-03-21T03:38:33.976Z,1015.31
2019-03-21T03:39:36.861Z,1015.27
2019-03-21T03:40:33.931Z,1015.21
2019-03-21T03:41:33.940Z,1015.24
2019-03-21T03:42:33.905Z,1015.26
2019-03-21T03:43:33.889Z,1015.21
2019-03-21T03:44:33.890Z,1015.26
2019-03-21T03:45:37.817Z,1015.26
2019-03-21T03:46:33.881Z,1015.29
2019-03-21T03:47:33.843Z,1015.33
2019-03-21T03:48:33.855Z,1015.32
2019-03-21T03:49:33.818Z,1015.33
2019-03-21T03:50:33.813Z,1015.27
2019-03-21T03:51:33.804Z,1015.36
2019-03-21T03:52:33.788Z,1015.36
2019-03-21T03:53:33.821Z,1015.39
2019-03-21T03:54:33.767Z,1015.38
2019-03-21T03:55:33.753Z,1015.38
2019-03-21T03:56:33.741Z,1015.38
2019-03-21T03:57:33.762Z,1015.41
2019-03-21T03:58:33.724Z,1015.41
2019-03-21T03:59:33.709Z,1015.44
2019-03-21T04:00:33.695Z,1015.48
2019-03-21T04:01:33.687Z,1015.46
2019-03-21T04:02:33.699Z,1015.48
2019-03-21T04:03:33.663Z,1015.44
2019-03-21T04:04:33.651Z,1015.48
2019-03-21T04:05:33.641Z,1015.50
2019-03-21T04:06:33.629Z,1015.48
2019-03-21T04:07:33.633Z,1015.48
2019-03-21T04:08:33.614Z,1015.52
2019-03-21T04:09:33.595Z,1015.53
2019-03-21T04:10:33.613Z,1015.58
2019-03-21T04:11:33.573Z,1015.56
2019-03-21T04:12:33.586Z,1015.54
2019-03-21T04:13:33.558Z,1015.57
2019-03-21T04:14:33.573Z,1015.56
2019-03-21T04:15:33.529Z,1015.54
2019-03-21T04:16:33.518Z,1015.54
2019-03-21T04:17:33.507Z,1015.58
2019-03-21T04:18:33.497Z,1015.59
2019-03-21T04:19:33.500Z,1015.54
2019-03-21T04:20:33.472Z,1015.55
2019-03-21T04:21:33.465Z,1015.55
2019-03-21T04:22:33.451Z,1015.54
2019-03-21T04:23:33.464Z,1015.53
2019-03-21T04:24:33.467Z,1015.53
2019-03-21T04:25:33.417Z,1015.49
2019-03-21T04:26:33.431Z,1015.51
2019-03-21T04:27:33.394Z,1015.54
2019-03-21T04:28:33.382Z,1015.50
2019-03-21T04:29:33.370Z,1015.51
2019-03-21T04:30:33.360Z,1015.52
2019-03-21T04:31:33.383Z,1015.53
2019-03-21T04:32:33.338Z,1015.54
2019-03-21T04:33:33.332Z,1015.58
2019-03-21T04:34:33.323Z,1015.56
2019-03-21T04:35:33.305Z,1015.55
2019-03-21T04:36:33.326Z,1015.56
2019-03-21T04:37:33.287Z,1015.54
2019-03-21T04:38:33.272Z,1015.50
2019-03-21T04:39:33.263Z,1015.49
2019-03-21T04:40:33.251Z,1015.50
2019-03-21T04:41:33.264Z,1015.52
2019-03-21T04:42:33.231Z,1015.57
2019-03-21T04:43:33.215Z,1015.51
2019-03-21T04:44:33.231Z,1015.53
2019-03-21T04:45:33.194Z,1015.54
2019-03-21T04:46:33.183Z,1015.57
2019-03-21T04:47:33.173Z,1015.58
2019-03-21T04:48:33.160Z,1015.54
2019-03-21T04:49:33.176Z,1015.61
2019-03-21T04:50:33.143Z,1015.62
2019-03-21T04:51:33.149Z,1015.57
2019-03-21T04:52:33.114Z,1015.59
2019-03-21T04:53:33.109Z,1015.63
2019-03-21T04:54:33.120Z,1015.61
2019-03-21T04:55:33.082Z,1015.62
2019-03-21T04:56:33.099Z,1015.60
2019-03-21T04:57:33.060Z,1015.62
2019-03-21T04:58:33.048Z,1015.57
2019-03-21T04:59:33.043Z,1015.54
2019-03-21T05:00:33.028Z,1015.51
2019-03-21T05:01:33.041Z,1015.55
2019-03-21T05:02:33.005Z,1015.55
2019-03-21T05:03:32.994Z,1015.54
2019-03-21T05:04:32.982Z,1015.55
2019-03-21T05:05:32.972Z,1015.50
2019-03-21T05:06:33.006Z,1015.55
2019-03-21T05:07:32.956Z,1015.51
2019-03-21T05:08:32.946Z,1015.52
2019-03-21T05:09:32.927Z,1015.53
2019-03-21T05:10:32.916Z,1015.52
2019-03-21T05:11:32.931Z,1015.47
2019-03-21T05:12:32.895Z,1015.56
2019-03-21T05:13:32.882Z,1015.56
2019-03-21T05:14:32.893Z,1015.58
2019-03-21T05:15:32.859Z,1015.59
2019-03-21T05:16:32.849Z,1015.62
2019-03-21T05:17:32.860Z,1015.63
2019-03-21T05:18:32.825Z,1015.65
2019-03-21T05:19:32.818Z,1015.64
2019-03-21T05:20:32.806Z,1015.66
2019-03-21T05:21:32.813Z,1015.69
2019-03-21T05:22:32.785Z,1015.65
2019-03-21T05:23:32.772Z,1015.66
2019-03-21T05:24:32.760Z,1015.69
2019-03-21T05:25:32.748Z,1015.66
2019-03-21T05:26:32.765Z,1015.67
2019-03-21T05:27:32.727Z,1015.69
2019-03-21T05:28:32.720Z,1015.70
2019-03-21T05:29:32.725Z,1015.68
2019-03-21T05:30:32.694Z,1015.64
2019-03-21T05:31:32.684Z,1015.65
2019-03-21T05:32:32.673Z,1015.60
2019-03-21T05:33:32.692Z,1015.62
2019-03-21T05:34:32.652Z,1015.61
2019-03-21T05:35:32.641Z,1015.68
2019-03-21T05:36:32.651Z,1015.68
2019-03-21T05:37:32.615Z,1015.68
2019-03-21T05:38:32.604Z,1015.68
2019-03-21T05:39:32.601Z,1015.72
2019-03-21T05:40:32.672Z,1015.70
2019-03-21T05:41:32.573Z,1015.72
2019-03-21T05:42:32.562Z,1015.70
2019-03-21T05:43:32.549Z,1015.68
2019-03-21T05:44:32.537Z,1015.73
2019-03-21T05:45:32.550Z,1015.65
2019-03-21T05:46:32.539Z,1015.70
2019-03-21T05:47:32.506Z,1015.71
2019-03-21T05:48:32.495Z,1015.74
2019-03-21T05:49:32.499Z,1015.76
2019-03-21T05:50:32.475Z,1015.79
2019-03-21T05:51:32.497Z,1015.81
2019-03-21T05:52:32.454Z,1015.79
2019-03-21T05:53:32.455Z,1015.83
2019-03-21T05:54:32.449Z,1015.81
2019-03-21T05:55:32.415Z,1015.87
2019-03-21T05:56:32.406Z,1015.88
2019-03-21T05:57:32.418Z,1015.96
2019-03-21T05:58:32.382Z,1015.93
2019-03-21T05:59:32.375Z,1015.97
2019-03-21T06:00:32.362Z,1015.96
2019-03-21T06:01:32.349Z,1016.00
2019-03-21T06:02:32.371Z,1016.04
2019-03-21T06:03:32.328Z,1016.02
2019-03-21T06:04:32.318Z,1016.01
2019-03-21T06:05:32.309Z,1016.03
2019-03-21T06:06:32.298Z,1016.04
2019-03-21T06:07:32.308Z,1016.06
2019-03-21T06:08:32.270Z,1016.05
2019-03-21T06:09:32.285Z,1016.07
2019-03-21T06:10:32.272Z,1016.08
2019-03-21T06:11:32.241Z,1016.12
2019-03-21T06:12:32.228Z,1016.10
2019-03-21T06:13:32.225Z,1016.06
2019-03-21T06:14:32.231Z,1016.08
2019-03-21T06:15:32.193Z,1016.09
2019-03-21T06:16:37.681Z,1016.08
2019-03-21T06:17:33.171Z,1016.11
2019-03-21T06:18:32.191Z,1016.11
2019-03-21T06:19:32.148Z,1016.12
2019-03-21T06:20:32.139Z,1016.16
2019-03-21T06:21:32.128Z,1016.14
2019-03-21T06:22:32.115Z,1016.17
2019-03-21T06:23:32.179Z,1016.18
2019-03-21T06:24:32.112Z,1016.18
2019-03-21T06:25:32.090Z,1016.20
2019-03-21T06:26:32.071Z,1016.24
2019-03-21T06:27:32.060Z,1016.19
2019-03-21T06:28:32.074Z,1016.22
2019-03-21T06:29:32.038Z,1016.21
2019-03-21T06:30:32.042Z,1016.19
2019-03-21T06:31:32.016Z,1016.19
2019-03-21T06:32:32.002Z,1016.19
2019-03-21T06:33:31.992Z,1016.22
2019-03-21T06:34:32.220Z,1016.21
2019-03-21T06:35:31.975Z,1016.28
2019-03-21T06:36:31.961Z,1016.25
2019-03-21T06:37:31.976Z,1016.29
2019-03-21T06:38:31.966Z,1016.28
2019-03-21T06:39:31.924Z,1016.36
2019-03-21T06:40:31.913Z,1016.38
2019-03-21T06:41:31.904Z,1016.36
2019-03-21T06:42:31.895Z,1016.39
2019-03-21T06:43:31.902Z,1016.40
2019-03-21T06:44:31.868Z,1016.39
2019-03-21T06:45:31.858Z,1016.33
2019-03-21T06:46:31.845Z,1016.38
2019-03-21T06:47:31.858Z,1016.40
2019-03-21T06:48:31.825Z,1016.37
2019-03-21T06:49:31.816Z,1016.40
2019-03-21T06:50:31.828Z,1016.41
2019-03-21T06:51:31.789Z,1016.39
2019-03-21T06:52:31.780Z,1016.39
2019-03-21T06:53:31.768Z,1016.36
2019-03-21T06:54:31.756Z,1016.36
2019-03-21T06:55:31.782Z,1016.37
2019-03-21T06:56:31.737Z,1016.31
2019-03-21T06:57:31.724Z,1016.35
2019-03-21T06:58:31.713Z,1016.37
2019-03-21T06:59:31.701Z,1016.39
2019-03-21T07:00:31.712Z,1016.34
2019-03-21T07:01:31.677Z,1016.37
2019-03-21T07:02:31.669Z,1016.43
2019-03-21T07:03:31.683Z,1016.42
2019-03-21T07:04:31.658Z,1016.44
2019-03-21T07:05:31.639Z,1016.42
2019-03-21T07:06:31.623Z,1016.37
2019-03-21T07:07:31.618Z,1016.41
2019-03-21T07:08:31.631Z,1016.38
2019-03-21T07:09:31.590Z,1016.35
2019-03-21T07:10:31.578Z,1016.35
2019-03-21T07:11:31.568Z,1016.28
2019-03-21T07:12:31.555Z,1016.34
2019-03-21T07:13:31.566Z,1016.31
2019-03-21T07:14:31.533Z,1016.28
2019-03-21T07:15:31.522Z,1016.32
2019-03-21T07:16:31.513Z,1016.31
2019-03-21T07:17:31.526Z,1016.35
2019-03-21T07:18:31.510Z,1016.32
2019-03-21T07:19:31.475Z,1016.28
2019-03-21T07:20:31.464Z,1016.28
2019-03-21T07:21:31.455Z,1016.33
2019-03-21T07:22:31.468Z,1016.29
2019-03-21T07:23:31.432Z,1016.28
2019-03-21T07:24:31.421Z,1016.26
2019-03-21T07:25:31.410Z,1016.25
2019-03-21T07:26:31.398Z,1016.26
2019-03-21T07:27:31.401Z,1016.22
2019-03-21T07:28:31.506Z,1016.23
2019-03-21T07:29:31.369Z,1016.26
2019-03-21T07:30:31.355Z,1016.28
2019-03-21T07:31:31.340Z,1016.24
2019-03-21T07:32:33.667Z,1016.25
2019-03-21T07:33:31.330Z,1016.26
2019-03-21T07:34:31.308Z,1016.25
2019-03-21T07:35:31.299Z,1016.25
2019-03-21T07:36:31.286Z,1016.29
2019-03-21T07:37:31.302Z,1016.27
2019-03-21T07:38:31.263Z,1016.25
2019-03-21T07:39:31.255Z,1016.27
2019-03-21T07:40:31.269Z,1016.21
2019-03-21T07:41:31.257Z,1016.25
2019-03-21T07:42:31.218Z,1016.28
2019-03-21T07:43:31.208Z,1016.27
2019-03-21T07:44:31.200Z,1016.30
2019-03-21T07:45:31.212Z,1016.31
2019-03-21T07:46:32.131Z,1016.29
2019-03-21T07:47:31.186Z,1016.31
2019-03-21T07:48:31.152Z,1016.28
2019-03-21T07:49:32.714Z,1016.24
2019-03-21T07:50:31.130Z,1016.27
2019-03-21T07:51:31.117Z,1016.27
2019-03-21T07:52:31.125Z,1016.32
2019-03-21T07:53:31.097Z,1016.32
2019-03-21T07:54:31.083Z,1016.30
2019-03-21T07:55:31.088Z,1016.30
2019-03-21T07:56:31.084Z,1016.25
2019-03-21T07:57:31.049Z,1016.27
2019-03-21T07:58:31.082Z,1016.27
2019-03-21T07:59:31.029Z,1016.28
2019-03-21T08:00:31.020Z,1016.26
2019-03-21T08:01:31.006Z,1016.23
2019-03-21T08:02:31.019Z,1016.25
2019-03-21T08:03:30.985Z,1016.26
2019-03-21T08:04:30.993Z,1016.25
2019-03-21T08:05:39.789Z,1016.27
2019-03-21T08:06:31.982Z,1016.27
2019-03-21T08:07:30.966Z,1016.25
2019-03-21T08:08:30.924Z,1016.28
2019-03-21T08:09:31.010Z,1016.33
2019-03-21T08:10:30.939Z,1016.27
2019-03-21T08:11:30.896Z,1016.28
2019-03-21T08:12:30.879Z,1016.26
2019-03-21T08:13:30.874Z,1016.25
2019-03-21T08:14:30.861Z,1016.25
2019-03-21T08:15:30.870Z,1016.24
2019-03-21T08:16:30.861Z,1016.27
2019-03-21T08:17:30.831Z,1016.26
2019-03-21T08:18:30.813Z,1016.23
2019-03-21T08:19:30.802Z,1016.25
2019-03-21T08:20:30.792Z,1016.28
2019-03-21T08:21:30.803Z,1016.25
2019-03-21T08:22:30.768Z,1016.26
2019-03-21T08:23:30.779Z,1016.22
2019-03-21T08:24:30.744Z,1016.20
2019-03-21T08:25:30.734Z,1016.20
2019-03-21T08:26:30.722Z,1016.23
2019-03-21T08:27:30.736Z,1016.23
2019-03-21T08:28:30.701Z,1016.21
2019-03-21T08:29:30.689Z,1016.22
2019-03-21T08:30:30.684Z,1016.20
2019-03-21T08:31:30.669Z,1016.17
2019-03-21T08:32:30.683Z,1016.19
2019-03-21T08:33:30.644Z,1016.21
2019-03-21T08:34:30.655Z,1016.20
2019-03-21T08:35:30.622Z,1016.20
2019-03-21T08:36:30.637Z,1016.19
2019-03-21T08:37:30.598Z,1016.20
2019-03-21T08:38:30.602Z,1016.22
2019-03-21T08:39:30.599Z,1016.21
2019-03-21T08:40:30.599Z,1016.18
2019-03-21T08:41:30.564Z,1016.18
2019-03-21T08:42:30.541Z,1016.17
2019-03-21T08:43:30.534Z,1016.15
2019-03-21T08:44:30.519Z,1016.11
2019-03-21T08:45:30.540Z,1016.09
2019-03-21T08:46:30.500Z,1016.11
2019-03-21T08:47:30.486Z,1016.11
2019-03-21T08:48:30.477Z,1016.07
2019-03-21T08:49:30.467Z,1016.11
2019-03-21T08:50:30.486Z,1016.00
2019-03-21T08:51:30.440Z,1016.03
2019-03-21T08:52:30.429Z,1016.02
2019-03-21T08:53:30.419Z,1016.08
2019-03-21T08:54:30.406Z,1016.04
2019-03-21T08:55:30.422Z,1016.02
2019-03-21T08:56:30.403Z,1016.06
2019-03-21T08:57:30.373Z,1016.05
2019-03-21T08:58:30.392Z,1016.05
2019-03-21T08:59:30.358Z,1016.03
2019-03-21T09:00:34.484Z,1016.00
2019-03-21T09:01:30.330Z,1015.99
2019-03-21T09:02:30.341Z,1016.00
2019-03-21T09:03:30.305Z,1016.00
2019-03-21T09:04:30.293Z,1015.96
2019-03-21T09:05:30.285Z,1015.98
2019-03-21T09:06:30.308Z,1015.98
2019-03-21T09:07:30.261Z,1015.97
2019-03-21T09:08:30.249Z,1015.97
2019-03-21T09:09:30.240Z,1015.97
2019-03-21T09:10:30.229Z,1015.99
2019-03-21T09:11:30.244Z,1015.96
2019-03-21T09:12:30.210Z,1015.96
2019-03-21T09:13:30.195Z,1015.92
2019-03-21T09:14:30.215Z,1015.93
2019-03-21T09:15:30.215Z,1015.87
2019-03-21T09:16:30.158Z,1015.89
2019-03-21T09:17:30.148Z,1015.89
2019-03-21T09:18:30.136Z,1015.90
2019-03-21T09:19:30.162Z,1015.86
2019-03-21T09:20:30.116Z,1015.88
2019-03-21T09:21:30.106Z,1015.89
2019-03-21T09:22:30.091Z,1015.90
2019-03-21T09:23:30.079Z,1015.87
2019-03-21T09:24:30.092Z,1015.81
2019-03-21T09:25:30.056Z,1015.81
2019-03-21T09:26:30.047Z,1015.82
2019-03-21T09:27:30.036Z,1015.82
2019-03-21T09:28:30.029Z,1015.83
2019-03-21T09:29:30.035Z,1015.80
2019-03-21T09:30:30.000Z,1015.85
2019-03-21T09:31:29.989Z,1015.80
2019-03-21T09:32:29.977Z,1015.82
2019-03-21T09:33:29.989Z,1015.79
2019-03-21T09:34:29.954Z,1015.84
2019-03-21T09:35:29.945Z,1015.83
2019-03-21T09:36:29.933Z,1015.80
2019-03-21T09:37:29.921Z,1015.79
2019-03-21T09:38:29.929Z,1015.75
2019-03-21T09:39:29.905Z,1015.78
2019-03-21T09:40:29.887Z,1015.74
2019-03-21T09:41:29.894Z,1015.77
2019-03-21T09:42:29.865Z,1015.78
2019-03-21T09:43:29.873Z,1015.75
2019-03-21T09:44:29.869Z,1015.80
2019-03-21T09:45:29.831Z,1015.74
2019-03-21T09:46:29.836Z,1015.73
2019-03-21T09:47:29.812Z,1015.76
2019-03-21T09:48:29.821Z,1015.78
2019-03-21T09:49:29.809Z,1015.77
2019-03-21T09:50:29.774Z,1015.74
2019-03-21T09:51:31.074Z,1015.78
2019-03-21T09:52:29.752Z,1015.73
2019-03-21T09:53:29.741Z,1015.76
2019-03-21T09:54:29.750Z,1015.72
2019-03-21T09:55:29.717Z,1015.71
2019-03-21T09:56:29.706Z,1015.73
2019-03-21T09:57:29.694Z,1015.74
2019-03-21T09:58:29.720Z,1015.73
2019-03-21T09:59:29.672Z,1015.78
2019-03-21T10:00:29.683Z,1015.75
2019-03-21T10:01:29.652Z,1015.73
2019-03-21T10:02:29.644Z,1015.69
2019-03-21T10:03:29.628Z,1015.74
2019-03-21T10:04:29.640Z,1015.70
2019-03-21T10:05:29.605Z,1015.67
2019-03-21T10:06:29.595Z,1015.64
2019-03-21T10:07:29.584Z,1015.66
2019-03-21T10:08:29.573Z,1015.66
2019-03-21T10:09:29.596Z,1015.70
2019-03-21T10:10:29.548Z,1015.66
2019-03-21T10:11:29.538Z,1015.67
2019-03-21T10:12:29.526Z,1015.66
2019-03-21T10:13:29.516Z,1015.63
2019-03-21T10:14:29.527Z,1015.60
2019-03-21T10:15:29.493Z,1015.60
2019-03-21T10:16:29.487Z,1015.59
2019-03-21T10:17:29.496Z,1015.60
2019-03-21T10:18:29.477Z,1015.58
2019-03-21T10:19:29.448Z,1015.56
2019-03-21T10:20:29.439Z,1015.56
2019-03-21T10:21:29.424Z,1015.58
2019-03-21T10:22:29.436Z,1015.52
2019-03-21T10:23:29.403Z,1015.56
2019-03-21T10:24:29.395Z,1015.58
2019-03-21T10:25:29.385Z,1015.53
2019-03-21T10:26:29.367Z,1015.55
2019-03-21T10:27:29.381Z,1015.51
2019-03-21T10:28:29.350Z,1015.47
2019-03-21T10:29:29.334Z,1015.53
2019-03-21T10:30:29.323Z,1015.52
2019-03-21T10:31:29.314Z,1015.56
2019-03-21T10:32:29.323Z,1015.54
2019-03-21T10:33:29.289Z,1015.50
2019-03-21T10:34:29.278Z,1015.48
2019-03-21T10:35:29.268Z,1015.51
2019-03-21T10:36:29.258Z,1015.51
2019-03-21T10:37:29.264Z,1015.50
2019-03-21T10:38:29.254Z,1015.50
2019-03-21T10:39:29.239Z,1015.48
2019-03-21T10:40:29.209Z,1015.49
2019-03-21T10:41:29.198Z,1015.51
2019-03-21T10:42:29.186Z,1015.48
2019-03-21T10:43:29.201Z,1015.49
2019-03-21T10:44:29.170Z,1015.50
2019-03-21T10:45:29.154Z,1015.48
2019-03-21T10:46:29.144Z,1015.49
2019-03-21T10:47:29.132Z,1015.45
2019-03-21T10:48:29.143Z,1015.42
2019-03-21T10:49:29.132Z,1015.41
2019-03-21T10:50:29.100Z,1015.44
2019-03-21T10:51:29.111Z,1015.42
2019-03-21T10:52:29.074Z,1015.41
2019-03-21T10:53:29.085Z,1015.40
2019-03-21T10:54:29.052Z,1015.43
2019-03-21T10:55:29.048Z,1015.46
2019-03-21T10:56:29.056Z,1015.42
2019-03-21T10:57:29.033Z,1015.36
2019-03-21T10:58:29.008Z,1015.36
2019-03-21T10:59:28.998Z,1015.36
2019-03-21T11:00:29.006Z,1015.39
2019-03-21T11:01:28.999Z,1015.39
2019-03-21T11:02:29.005Z,1015.33
2019-03-21T11:03:28.967Z,1015.36
2019-03-21T11:04:28.958Z,1015.37
2019-03-21T11:05:28.953Z,1015.30
2019-03-21T11:06:28.946Z,1015.31
2019-03-21T11:07:28.907Z,1015.26
2019-03-21T11:08:28.895Z,1015.29
2019-03-21T11:09:28.886Z,1015.24
2019-03-21T11:10:28.915Z,1015.26
2019-03-21T11:11:28.862Z,1015.25
2019-03-21T11:12:28.851Z,1015.18
2019-03-21T11:13:28.846Z,1015.18
2019-03-21T11:14:28.828Z,1015.21
2019-03-21T11:15:29.503Z,1015.20
2019-03-21T11:16:31.363Z,1015.20
2019-03-21T11:17:28.818Z,1015.14
2019-03-21T11:18:35.978Z,1015.12
2019-03-21T11:19:29.770Z,1015.15
2019-03-21T11:20:28.800Z,1015.13
2019-03-21T11:21:28.749Z,1015.14
2019-03-21T11:22:28.764Z,1015.12
2019-03-21T11:23:28.732Z,1015.14
2019-03-21T11:24:28.731Z,1015.10
2019-03-21T11:25:28.704Z,1015.06
2019-03-21T11:26:28.716Z,1015.11
2019-03-21T11:27:28.679Z,1015.04
2019-03-21T11:28:28.670Z,1015.07
2019-03-21T11:29:28.658Z,1015.08
2019-03-21T11:30:28.648Z,1015.08
2019-03-21T11:31:28.661Z,1015.07
2019-03-21T11:32:28.626Z,1015.04
2019-03-21T11:33:28.615Z,1015.02
2019-03-21T11:34:28.601Z,1015.03
2019-03-21T11:35:28.592Z,1015.01
2019-03-21T11:36:37.696Z,1015.00
2019-03-21T11:37:29.566Z,1014.97
2019-03-21T11:38:28.574Z,1014.95
2019-03-21T11:39:28.563Z,1014.88
2019-03-21T11:40:28.563Z,1014.88
2019-03-21T11:41:28.526Z,1014.90
2019-03-21T11:42:28.539Z,1014.88
2019-03-21T11:43:28.501Z,1014.90
2019-03-21T11:44:28.491Z,1014.85
2019-03-21T11:45:28.501Z,1014.80
2019-03-21T11:46:28.479Z,1014.85
2019-03-21T11:47:28.480Z,1014.85
2019-03-21T11:48:28.449Z,1014.83
2019-03-21T11:49:28.451Z,1014.76
2019-03-21T11:50:28.477Z,1014.77
2019-03-21T11:51:28.426Z,1014.80
2019-03-21T11:52:28.403Z,1014.81
2019-03-21T11:53:28.390Z,1014.81
2019-03-21T11:54:28.399Z,1014.80
2019-03-21T11:55:28.401Z,1014.84
2019-03-21T11:56:28.363Z,1014.79
2019-03-21T11:57:28.370Z,1014.75
2019-03-21T11:58:28.334Z,1014.83
2019-03-21T11:59:41.326Z,1014.83
2019-03-21T12:00:29.311Z,1014.79
2019-03-21T12:01:28.303Z,1014.80
2019-03-21T12:02:28.289Z,1014.76
2019-03-21T12:03:28.309Z,1014.74
2019-03-21T12:04:28.270Z,1014.69
2019-03-21T12:05:28.259Z,1014.67